createdAt,value
2022-12-01T00:00:27.210Z,43.20
2022-12-01T00:02:56.101Z,42.70
2022-12-01T00:05:25.012Z,41.03
2022-12-01T00:07:57.814Z,42.50
2022-12-01T00:10:27.597Z,44.40
2022-12-01T00:12:58.255Z,42.13
2022-12-01T00:15:29.130Z,38.87
2022-12-01T00:17:59.782Z,40.33
2022-12-01T00:20:29.154Z,40.33
2022-12-01T00:22:59.950Z,40.40
2022-12-01T00:25:29.383Z,39.87
2022-12-01T00:27:59.631Z,37.00
2022-12-01T00:30:28.412Z,38.30
2022-12-01T00:32:57.362Z,39.00
2022-12-01T00:35:26.765Z,39.30
2022-12-01T00:37:57.120Z,36.67
2022-12-01T00:40:29.817Z,36.80
2022-12-01T00:42:58.348Z,42.63
2022-12-01T00:45:27.197Z,40.00
2022-12-01T00:47:55.806Z,37.97
2022-12-01T00:50:24.405Z,40.80
2022-12-01T00:52:56.172Z,37.60
2022-12-01T00:55:26.800Z,39.03
2022-12-01T00:57:55.377Z,37.90
2022-12-01T01:00:24.126Z,36.77
2022-12-01T01:02:52.701Z,38.23
2022-12-01T01:05:21.426Z,35.63
2022-12-01T01:07:50.189Z,37.53
2022-12-01T01:10:19.300Z,36.97
2022-12-01T01:12:49.309Z,38.67
2022-12-01T01:15:17.931Z,39.30
2022-12-01T01:17:46.518Z,36.83
2022-12-01T01:20:15.691Z,35.73
2022-12-01T01:22:44.265Z,33.63
2022-12-01T01:25:12.855Z,35.97
2022-12-01T01:27:41.414Z,34.70
2022-12-01T01:30:13.356Z,34.33
2022-12-01T01:32:41.874Z,33.73
2022-12-01T01:35:10.522Z,30.97
2022-12-01T01:37:39.053Z,32.97
2022-12-01T01:40:08.970Z,32.10
2022-12-01T01:42:37.441Z,31.33
2022-12-01T01:45:18.550Z,33.13
2022-12-01T01:47:50.809Z,33.63
2022-12-01T01:50:23.982Z,35.30
2022-12-01T01:52:57.045Z,33.40
2022-12-01T01:55:26.495Z,31.63
2022-12-01T01:57:55.144Z,31.83
2022-12-01T02:00:24.162Z,34.43
2022-12-01T02:02:55.602Z,33.30
2022-12-01T02:05:26.939Z,33.50
2022-12-01T02:07:57.979Z,32.13
2022-12-01T02:10:31.648Z,32.63
2022-12-01T02:13:14.766Z,33.10
2022-12-01T02:15:54.796Z,32.40
2022-12-01T02:18:31.584Z,32.60
2022-12-01T02:21:21.515Z,35.00
2022-12-01T02:24:25.527Z,31.33
2022-12-01T02:27:03.032Z,29.13
2022-12-01T02:30:10.324Z,31.07
2022-12-01T02:33:03.977Z,32.77
2022-12-01T02:35:37.160Z,29.27
2022-12-01T02:38:14.595Z,33.70
2022-12-01T02:40:47.783Z,33.97
2022-12-01T02:43:21.623Z,34.33
2022-12-01T02:45:55.795Z,35.93
2022-12-01T02:48:29.916Z,36.73
2022-12-01T02:51:01.165Z,38.03
2022-12-01T02:53:29.709Z,37.40
2022-12-01T02:56:00.250Z,37.60
2022-12-01T02:58:28.751Z,38.67
2022-12-01T03:01:25.678Z,37.60
2022-12-01T03:04:16.447Z,36.33
2022-12-01T03:06:54.817Z,36.77
2022-12-01T03:09:31.789Z,35.77
2022-12-01T03:12:13.191Z,38.40
2022-12-01T03:14:47.338Z,38.30
2022-12-01T03:17:20.711Z,38.03
2022-12-01T03:19:55.616Z,38.10
2022-12-01T03:22:27.803Z,35.27
2022-12-01T03:24:58.696Z,35.50
2022-12-01T03:27:31.559Z,36.00
2022-12-01T03:30:02.584Z,33.73
2022-12-01T03:32:34.656Z,36.00
2022-12-01T03:35:11.089Z,37.23
2022-12-01T03:37:43.168Z,35.67
2022-12-01T03:40:18.548Z,35.80
2022-12-01T03:42:51.250Z,37.07
2022-12-01T03:45:26.218Z,35.03
2022-12-01T03:47:54.853Z,36.63
2022-12-01T03:50:31.445Z,34.37
2022-12-01T03:53:08.890Z,37.00
2022-12-01T03:55:42.942Z,36.07
2022-12-01T03:58:14.451Z,34.57
2022-12-01T04:00:44.044Z,35.57
2022-12-01T04:03:20.123Z,35.60
2022-12-01T04:05:50.318Z,36.57
2022-12-01T04:08:19.080Z,33.73
2022-12-01T04:10:47.862Z,35.37
2022-12-01T04:13:22.844Z,33.33
2022-12-01T04:15:51.951Z,33.00
2022-12-01T04:18:21.457Z,32.53
2022-12-01T04:20:51.722Z,31.43
2022-12-01T04:23:33.960Z,32.43
2022-12-01T04:26:03.622Z,31.70
2022-12-01T04:28:32.304Z,30.77
2022-12-01T04:31:01.033Z,32.47
2022-12-01T04:33:31.041Z,32.77
2022-12-01T04:36:01.987Z,29.07
2022-12-01T04:38:31.235Z,30.70
2022-12-01T04:40:59.886Z,29.30
2022-12-01T04:43:28.336Z,32.27
2022-12-01T04:45:56.797Z,30.47
2022-12-01T04:48:25.547Z,31.70
2022-12-01T04:50:54.168Z,31.33
2022-12-01T04:53:24.104Z,30.60
2022-12-01T04:55:52.581Z,30.83
2022-12-01T04:58:21.348Z,31.20
2022-12-01T05:01:04.123Z,30.57
2022-12-01T05:03:32.590Z,30.50
2022-12-01T05:06:04.923Z,30.70
2022-12-01T05:08:36.374Z,32.50
2022-12-01T05:11:06.623Z,31.50
2022-12-01T05:13:35.418Z,32.30
2022-12-01T05:16:08.193Z,31.03
2022-12-01T05:18:36.962Z,30.93
2022-12-01T05:21:06.472Z,33.30
2022-12-01T05:23:38.389Z,30.77
2022-12-01T05:26:09.024Z,32.37
2022-12-01T05:28:37.849Z,35.57
2022-12-01T05:31:06.818Z,35.80
2022-12-01T05:33:35.297Z,37.50
2022-12-01T05:36:04.398Z,38.13
2022-12-01T05:38:33.025Z,38.53
2022-12-01T05:41:02.991Z,37.30
2022-12-01T05:43:31.640Z,36.53
2022-12-01T05:46:00.608Z,37.10
2022-12-01T05:48:29.179Z,38.07
2022-12-01T05:50:57.779Z,36.33
2022-12-01T05:53:26.397Z,38.73
2022-12-01T05:55:55.936Z,36.67
2022-12-01T05:58:26.102Z,36.53
2022-12-01T06:00:54.632Z,39.07
2022-12-01T06:03:23.202Z,38.73
2022-12-01T06:05:52.206Z,36.60
2022-12-01T06:08:21.021Z,40.00
2022-12-01T06:10:50.033Z,39.10
2022-12-01T06:13:18.616Z,39.97
2022-12-01T06:15:57.774Z,40.53
2022-12-01T06:18:27.246Z,41.07
2022-12-01T06:20:56.051Z,43.33
2022-12-01T06:23:29.977Z,40.87
2022-12-01T06:25:59.078Z,42.10
2022-12-01T06:28:27.805Z,42.27
2022-12-01T06:31:03.152Z,41.83
2022-12-01T06:33:32.152Z,41.57
2022-12-01T06:36:01.259Z,41.17
2022-12-01T06:38:32.736Z,40.53
2022-12-01T06:41:01.579Z,38.83
2022-12-01T06:43:30.379Z,40.60
2022-12-01T06:46:02.361Z,38.63
2022-12-01T06:48:31.577Z,37.70
2022-12-01T06:51:00.511Z,38.77
2022-12-01T06:53:29.675Z,39.37
2022-12-01T06:56:01.652Z,36.27
2022-12-01T06:58:31.687Z,37.47
2022-12-01T07:01:02.844Z,36.20
2022-12-01T07:03:31.744Z,35.67
2022-12-01T07:06:01.620Z,36.77
2022-12-01T07:08:31.370Z,34.80
2022-12-01T07:11:01.284Z,35.67
2022-12-01T07:13:33.348Z,32.93
2022-12-01T07:16:04.711Z,33.70
2022-12-01T07:18:34.027Z,32.07
2022-12-01T07:21:03.044Z,32.20
2022-12-01T07:23:32.846Z,30.23
2022-12-01T07:26:02.102Z,30.23
2022-12-01T07:28:31.333Z,29.63
2022-12-01T07:31:06.391Z,29.87
2022-12-01T07:33:35.402Z,29.50
2022-12-01T07:36:05.391Z,28.23
2022-12-01T07:38:35.005Z,27.77
2022-12-01T07:41:04.687Z,29.20
2022-12-01T07:43:33.945Z,26.87
2022-12-01T07:46:10.010Z,26.73
2022-12-01T07:48:39.761Z,27.20
2022-12-01T07:51:09.013Z,27.73
2022-12-01T07:53:38.407Z,27.07
2022-12-01T07:56:08.899Z,26.87
2022-12-01T07:58:38.671Z,25.47
2022-12-01T08:01:14.952Z,25.50
2022-12-01T08:03:44.518Z,23.43
2022-12-01T08:06:13.713Z,24.70
2022-12-01T08:08:43.381Z,25.77
2022-12-01T08:11:14.014Z,25.83
2022-12-01T08:13:44.109Z,24.47
2022-12-01T08:16:17.081Z,25.00
2022-12-01T08:18:47.238Z,23.83
2022-12-01T08:21:17.830Z,24.77
2022-12-01T08:23:47.498Z,23.93
2022-12-01T08:26:17.473Z,23.70
2022-12-01T08:28:49.796Z,24.53
2022-12-01T08:31:22.430Z,25.00
2022-12-01T08:33:52.617Z,24.00
2022-12-01T08:36:22.049Z,24.50
2022-12-01T08:38:52.678Z,23.77
2022-12-01T08:41:22.635Z,24.70
2022-12-01T08:43:59.814Z,24.60
2022-12-01T08:46:34.284Z,26.03
2022-12-01T08:49:03.816Z,26.60
2022-12-01T08:51:34.517Z,26.10
2022-12-01T08:54:03.821Z,28.50
2022-12-01T08:56:38.565Z,27.37
2022-12-01T08:59:09.096Z,29.13
2022-12-01T09:01:52.376Z,28.30
2022-12-01T09:04:23.283Z,28.97
2022-12-01T09:06:53.919Z,27.60
2022-12-01T09:09:25.229Z,27.63
2022-12-01T09:11:55.237Z,27.30
2022-12-01T09:14:27.005Z,27.60
2022-12-01T09:16:57.826Z,26.37
2022-12-01T09:19:28.775Z,26.43
2022-12-01T09:21:57.555Z,25.73
2022-12-01T09:24:27.546Z,27.27
2022-12-01T09:26:57.485Z,28.60
2022-12-01T09:29:27.541Z,26.57
2022-12-01T09:31:59.449Z,28.57
2022-12-01T09:34:31.556Z,27.37
2022-12-01T09:37:00.497Z,28.63
2022-12-01T09:39:30.279Z,27.57
2022-12-01T09:42:08.726Z,26.27
2022-12-01T09:44:43.594Z,25.20
2022-12-01T09:47:24.931Z,24.30
2022-12-01T09:49:59.749Z,24.00
2022-12-01T09:52:33.137Z,23.23
2022-12-01T09:55:03.984Z,22.50
2022-12-01T09:57:36.840Z,22.97
2022-12-01T10:00:09.840Z,21.67
2022-12-01T10:02:45.996Z,21.93
2022-12-01T10:05:22.537Z,20.87
2022-12-01T10:07:59.503Z,22.27
2022-12-01T10:10:40.286Z,21.83
2022-12-01T10:13:18.724Z,22.03
2022-12-01T10:15:58.830Z,23.23
2022-12-01T10:18:49.607Z,21.80
2022-12-01T10:21:32.990Z,22.53
2022-12-01T10:24:38.574Z,32.17
2022-12-01T10:27:23.972Z,24.93
2022-12-01T10:30:02.572Z,25.83
2022-12-01T10:32:43.145Z,26.30
2022-12-01T10:35:18.226Z,24.67
2022-12-01T10:37:48.365Z,24.90
2022-12-01T10:40:19.124Z,26.17
2022-12-01T10:42:54.118Z,27.00
2022-12-01T10:45:26.777Z,29.77
2022-12-01T10:48:17.256Z,28.67
2022-12-01T10:50:50.138Z,27.83
2022-12-01T10:53:31.211Z,28.67
2022-12-01T10:56:14.393Z,28.60
2022-12-01T10:58:48.266Z,29.50
2022-12-01T11:01:28.157Z,29.17
2022-12-01T11:04:02.046Z,28.27
2022-12-01T11:06:37.305Z,29.07
2022-12-01T11:09:22.934Z,30.07
2022-12-01T11:11:58.494Z,30.73
2022-12-01T11:14:35.709Z,29.83
2022-12-01T11:17:32.551Z,31.30
2022-12-01T11:20:22.601Z,32.53
2022-12-01T11:22:53.449Z,33.80
2022-12-01T11:25:23.775Z,32.20
2022-12-01T11:28:02.097Z,31.23
2022-12-01T11:30:33.728Z,32.90
2022-12-01T11:33:04.858Z,33.77
2022-12-01T11:35:36.849Z,34.23
2022-12-01T11:41:01.307Z,34.63
2022-12-01T11:43:36.733Z,36.47
2022-12-01T11:46:14.673Z,37.30
2022-12-01T11:49:01.911Z,36.33
2022-12-01T11:51:37.970Z,38.33
2022-12-01T11:54:17.967Z,37.87
2022-12-01T11:57:32.558Z,38.87
2022-12-01T11:59:55.734Z,39.07
2022-12-01T12:02:38.493Z,39.67
2022-12-01T12:05:44.178Z,40.97
2022-12-01T12:08:32.289Z,40.17
2022-12-01T12:11:13.634Z,43.87
2022-12-01T12:13:57.929Z,43.27
2022-12-01T12:16:39.198Z,43.97
2022-12-01T12:19:34.106Z,42.30
2022-12-01T12:22:19.109Z,44.07
2022-12-01T12:25:00.313Z,42.30
2022-12-01T12:27:41.213Z,42.93
2022-12-01T12:30:26.646Z,43.93
2022-12-01T12:33:25.071Z,63.53
2022-12-01T12:36:05.121Z,44.33
2022-12-01T12:38:50.752Z,43.57
2022-12-01T12:41:31.020Z,44.13
2022-12-01T12:44:19.884Z,43.97
2022-12-01T12:46:58.951Z,43.70
2022-12-01T12:49:38.931Z,43.00
2022-12-01T12:52:17.922Z,43.07
2022-12-01T12:54:57.957Z,46.03
2022-12-01T12:57:33.018Z,44.33
2022-12-01T13:00:06.435Z,44.63
2022-12-01T13:02:44.637Z,45.10
2022-12-01T13:05:37.562Z,45.97
2022-12-01T13:08:12.562Z,46.43
2022-12-01T13:10:51.076Z,46.07
2022-12-01T13:13:32.341Z,46.63
2022-12-01T13:16:04.896Z,45.13
2022-12-01T13:18:43.080Z,46.10
2022-12-01T13:21:18.137Z,46.03
2022-12-01T13:23:49.833Z,45.30
2022-12-01T13:26:22.255Z,43.80
2022-12-01T13:29:28.017Z,45.13
2022-12-01T13:31:58.454Z,44.37
2022-12-01T13:34:36.153Z,43.77
2022-12-01T13:37:05.998Z,44.23
2022-12-01T13:39:38.258Z,44.23
2022-12-01T13:42:10.001Z,45.33
2022-12-01T13:44:43.563Z,43.57
2022-12-01T13:47:35.868Z,45.37
2022-12-01T13:50:40.895Z,47.07
2022-12-01T13:53:29.890Z,45.87
2022-12-01T13:56:16.080Z,47.63
2022-12-01T13:58:48.387Z,46.40
2022-12-01T14:01:49.005Z,48.87
2022-12-01T14:04:39.778Z,46.93
2022-12-01T14:07:38.410Z,47.63
2022-12-01T14:10:39.885Z,48.63
2022-12-01T14:13:21.158Z,47.80
2022-12-01T14:15:57.411Z,45.23
2022-12-01T14:18:36.695Z,46.80
2022-12-01T14:21:11.840Z,47.93
2022-12-01T14:24:03.764Z,46.17
2022-12-01T14:26:35.239Z,46.27
2022-12-01T14:29:36.136Z,47.40
2022-12-01T14:32:24.005Z,46.10
2022-12-01T14:35:04.340Z,47.40
2022-12-01T14:37:46.076Z,48.23
2022-12-01T14:40:36.147Z,46.40
2022-12-01T14:43:48.007Z,45.37
2022-12-01T14:46:25.347Z,46.67
2022-12-01T14:48:59.953Z,47.20
2022-12-01T14:51:36.682Z,44.50
2022-12-01T14:54:27.566Z,47.37
2022-12-01T14:57:07.485Z,47.33
2022-12-01T14:59:46.399Z,45.37
2022-12-01T15:02:17.220Z,45.23
2022-12-01T15:05:18.488Z,46.03
2022-12-01T15:08:06.818Z,47.03
2022-12-01T15:10:58.335Z,47.77
2022-12-01T15:13:51.151Z,47.90
2022-12-01T15:16:46.855Z,47.40
2022-12-01T15:19:42.961Z,47.63
2022-12-01T15:22:24.347Z,48.53
2022-12-01T15:24:56.173Z,47.60
2022-12-01T15:27:42.597Z,53.33
2022-12-01T15:30:19.752Z,47.23
2022-12-01T15:33:02.657Z,49.33
2022-12-01T15:35:45.121Z,49.90
2022-12-01T15:38:18.793Z,50.00
2022-12-01T15:41:27.488Z,53.70
2022-12-01T15:44:05.714Z,51.87
2022-12-01T15:46:45.592Z,49.23
2022-12-01T15:49:36.847Z,49.90
2022-12-01T15:52:24.113Z,49.23
2022-12-01T15:55:10.791Z,48.30
2022-12-01T15:57:45.690Z,49.33
2022-12-01T16:00:31.355Z,46.43
2022-12-01T16:03:03.377Z,49.37
2022-12-01T16:05:36.379Z,49.50
2022-12-01T16:08:22.147Z,47.73
2022-12-01T16:11:16.956Z,48.87
2022-12-01T16:13:50.624Z,47.07
2022-12-01T16:16:38.172Z,48.43
2022-12-01T16:19:42.484Z,47.63
2022-12-01T16:22:45.636Z,48.27
2022-12-01T16:25:42.324Z,47.27
2022-12-01T16:28:26.273Z,48.13
2022-12-01T16:30:57.361Z,48.47
2022-12-01T16:33:30.079Z,47.70
2022-12-01T16:39:50.917Z,46.70
2022-12-01T16:42:49.210Z,47.03
2022-12-01T16:45:19.446Z,46.70
2022-12-01T16:47:50.201Z,47.00
2022-12-01T16:50:22.642Z,46.50
2022-12-01T16:52:51.414Z,48.43
2022-12-01T16:55:29.933Z,47.23
2022-12-01T16:57:58.922Z,41.90
2022-12-01T17:00:29.687Z,49.03
2022-12-01T17:02:59.932Z,47.57
2022-12-01T17:05:33.041Z,48.13
2022-12-01T17:08:05.335Z,47.03
2022-12-01T17:10:35.516Z,48.30
2022-12-01T17:13:04.698Z,45.80
2022-12-01T17:15:33.518Z,46.77
2022-12-01T17:18:02.607Z,47.03
2022-12-01T17:20:32.845Z,45.57
2022-12-01T17:23:04.987Z,45.77
2022-12-01T17:25:41.490Z,46.83
2022-12-01T17:28:10.168Z,47.70
2022-12-01T17:30:39.637Z,46.13
2022-12-01T17:33:08.843Z,45.17
2022-12-01T17:35:39.775Z,45.90
2022-12-01T17:38:08.674Z,46.90
2022-12-01T17:40:37.558Z,46.57
2022-12-01T17:43:08.591Z,46.43
2022-12-01T17:45:42.471Z,45.20
2022-12-01T17:48:11.314Z,42.13
2022-12-01T17:50:42.200Z,35.90
2022-12-01T17:53:11.055Z,42.73
2022-12-01T17:55:41.595Z,46.00
2022-12-01T17:58:10.430Z,41.23
2022-12-01T18:00:39.382Z,41.80
2022-12-01T18:03:08.795Z,42.33
2022-12-01T18:05:37.757Z,42.10
2022-12-01T18:08:08.464Z,36.33
2022-12-01T18:10:37.906Z,42.20
2022-12-01T18:13:06.832Z,41.70
2022-12-01T18:15:35.726Z,42.83
2022-12-01T18:18:04.519Z,40.43
2022-12-01T18:20:33.609Z,41.17
2022-12-01T18:23:02.424Z,43.37
2022-12-01T18:25:32.726Z,41.37
2022-12-01T18:28:01.535Z,39.97
2022-12-01T18:30:31.317Z,31.20
2022-12-01T18:33:00.192Z,39.03
2022-12-01T18:35:31.900Z,39.80
2022-12-01T18:38:01.130Z,41.00
2022-12-01T18:40:29.921Z,39.43
2022-12-01T18:43:00.372Z,40.27
2022-12-01T18:45:29.265Z,40.57
2022-12-01T18:47:58.520Z,40.43
2022-12-01T18:50:27.498Z,40.97
2022-12-01T18:52:56.224Z,39.43
2022-12-01T18:55:25.024Z,40.00
2022-12-01T18:57:54.320Z,39.70
2022-12-01T19:00:25.149Z,39.03
2022-12-01T19:03:04.463Z,40.63
2022-12-01T19:05:35.791Z,40.30
2022-12-01T19:08:05.026Z,40.07
2022-12-01T19:10:34.678Z,40.47
2022-12-01T19:13:06.344Z,39.80
2022-12-01T19:15:39.845Z,41.07
2022-12-01T19:18:10.173Z,40.03
2022-12-01T19:20:39.764Z,40.40
2022-12-01T19:23:08.700Z,39.97
2022-12-01T19:25:40.893Z,32.40
2022-12-01T19:28:18.827Z,32.87
2022-12-01T19:31:25.589Z,38.83
2022-12-01T19:33:55.953Z,32.57
2022-12-01T19:40:15.169Z,29.17
2022-12-01T19:46:48.084Z,27.70
2022-12-01T19:55:37.775Z,28.37
2022-12-01T19:58:07.065Z,28.60
2022-12-01T20:00:36.289Z,33.10
2022-12-01T20:03:11.602Z,30.40
2022-12-01T20:05:40.598Z,31.70
2022-12-01T20:08:14.281Z,27.47
2022-12-01T20:10:49.137Z,29.80
2022-12-01T20:13:18.896Z,27.73
2022-12-01T20:15:48.264Z,27.13
2022-12-01T20:18:19.267Z,31.17
2022-12-01T20:20:48.521Z,26.90
2022-12-01T20:23:17.808Z,28.33
2022-12-01T20:25:46.811Z,31.73
2022-12-01T20:28:18.968Z,28.20
2022-12-01T20:30:50.570Z,31.70
2022-12-01T20:33:21.858Z,26.77
2022-12-01T20:35:55.480Z,30.50
2022-12-01T20:38:27.694Z,24.47
2022-12-01T20:40:57.708Z,27.13
2022-12-01T20:43:27.583Z,27.37
2022-12-01T20:45:56.795Z,29.10
2022-12-01T20:48:27.418Z,27.23
2022-12-01T20:50:56.437Z,25.23
2022-12-01T20:53:25.974Z,25.00
2022-12-01T20:55:57.147Z,30.87
2022-12-01T20:58:31.071Z,26.53
2022-12-01T21:01:10.059Z,25.57
2022-12-01T21:03:43.096Z,23.67
2022-12-01T21:06:13.377Z,26.60
2022-12-01T21:08:43.989Z,23.83
2022-12-01T21:11:19.989Z,24.90
2022-12-01T21:13:47.971Z,29.50
2022-12-01T21:16:23.779Z,27.77
2022-12-01T21:18:56.342Z,25.83
2022-12-01T21:21:27.927Z,27.43
2022-12-01T21:24:10.580Z,26.13
2022-12-01T21:26:41.184Z,25.73
2022-12-01T21:29:20.975Z,27.07
2022-12-01T21:31:53.987Z,27.53
2022-12-01T21:34:25.772Z,26.43
2022-12-01T21:37:03.175Z,32.33
2022-12-01T21:39:32.814Z,25.83
2022-12-01T21:42:15.729Z,25.63
2022-12-01T21:44:45.098Z,24.90
2022-12-01T21:47:19.313Z,28.47
2022-12-01T21:49:53.202Z,32.73
2022-12-01T21:52:25.315Z,26.93
2022-12-01T21:54:54.766Z,27.43
2022-12-01T21:57:39.791Z,25.43
2022-12-01T22:00:27.325Z,25.70
2022-12-01T22:03:23.000Z,26.23
2022-12-01T22:06:21.151Z,26.20
2022-12-01T22:08:47.223Z,25.60
2022-12-01T22:11:20.046Z,25.17
2022-12-01T22:13:51.705Z,27.03
2022-12-01T22:16:23.024Z,27.30
2022-12-01T22:18:53.290Z,26.47
2022-12-01T22:21:41.259Z,33.57
2022-12-01T22:24:29.169Z,26.43
2022-12-01T22:27:29.330Z,28.97
2022-12-01T22:30:01.999Z,28.00
2022-12-01T22:32:44.252Z,26.33
2022-12-01T22:35:35.700Z,28.93
2022-12-01T22:38:32.743Z,27.33
2022-12-01T22:41:08.061Z,25.37
2022-12-01T22:43:48.099Z,25.03
2022-12-01T22:46:28.674Z,28.23
2022-12-01T22:48:58.575Z,27.23
2022-12-01T22:51:36.863Z,28.60
2022-12-01T22:54:30.442Z,28.03
2022-12-01T22:57:07.125Z,29.27
2022-12-01T22:59:37.768Z,29.67
2022-12-01T23:02:20.575Z,27.00
2022-12-01T23:04:51.490Z,28.40
2022-12-01T23:07:29.605Z,25.87
2022-12-01T23:10:13.264Z,27.23
2022-12-01T23:12:43.692Z,31.90
2022-12-01T23:15:31.630Z,30.30
2022-12-01T23:18:04.333Z,29.90
2022-12-01T23:20:34.729Z,29.00
2022-12-01T23:23:05.649Z,27.60
2022-12-01T23:25:36.503Z,27.00
2022-12-01T23:28:07.086Z,27.30
2022-12-01T23:30:37.370Z,31.37
2022-12-01T23:33:14.580Z,27.17
2022-12-01T23:35:47.663Z,29.63
2022-12-01T23:38:19.050Z,30.47
2022-12-01T23:40:50.762Z,30.83
2022-12-01T23:43:22.988Z,28.93
2022-12-01T23:45:59.276Z,32.57
2022-12-01T23:48:33.438Z,30.67
2022-12-01T23:51:02.098Z,29.07
2022-12-01T23:53:32.107Z,30.37
2022-12-01T23:56:07.031Z,29.97
2022-12-01T23:58:36.105Z,30.23
